Peshtigo, Wisconsin
Current Conditions -  °F | °C
As of 1:55 PM on Friday 24 Oct 2014 (Local Time) from KMNM Reporting Station
Overcast Overcast  
Wind Chill: 50°   Ceiling: 600
Heat Index: 50°   Visibility: 8mi
Dew Point: 46°   Wind: 7mph
Humidity: 87%   Direction: 260°W
Pressure: 29.92"   Gusts: NA
Location:  45.05°N, 87.75°W
Report Text: KMNM 241855Z AUTO 26006KT 8SM OVC006 10/08 A2992 RMK AO1
Loading
Personal Weather Stations






























Interactive Weather Map
Tropical Storm Tracking
New forecast layout! Learn more

10-Day Weather Forecast

Advertisements
Track Severe Weather on mobile